sensor_id;sensor_type;location;lat;lon;timestamp;P1;durP1;ratioP1;P2;durP2;ratioP2
70150;SDS011;57517;43.562;19.540;2022-11-18T00:01:04;18.40;;;13.65;;
70150;SDS011;57517;43.562;19.540;2022-11-18T00:03:32;16.80;;;14.10;;
70150;SDS011;57517;43.562;19.540;2022-11-18T00:05:58;21.75;;;14.75;;
70150;SDS011;57517;43.562;19.540;2022-11-18T00:08:24;19.13;;;14.30;;
70150;SDS011;57517;43.562;19.540;2022-11-18T00:10:50;26.30;;;18.02;;
70150;SDS011;57517;43.562;19.540;2022-11-18T00:13:18;24.33;;;17.40;;
70150;SDS011;57517;43.562;19.540;2022-11-18T00:16:06;23.83;;;17.77;;
70150;SDS011;57517;43.562;19.540;2022-11-18T00:18:34;24.15;;;18.42;;
70150;SDS011;57517;43.562;19.540;2022-11-18T00:21:01;24.17;;;17.65;;
70150;SDS011;57517;43.562;19.540;2022-11-18T00:23:27;22.60;;;17.58;;
70150;SDS011;57517;43.562;19.540;2022-11-18T00:25:53;28.88;;;20.17;;
70150;SDS011;57517;43.562;19.540;2022-11-18T00:28:19;29.58;;;19.98;;
70150;SDS011;57517;43.562;19.540;2022-11-18T00:30:45;25.30;;;19.42;;
70150;SDS011;57517;43.562;19.540;2022-11-18T00:33:11;25.33;;;17.52;;
70150;SDS011;57517;43.562;19.540;2022-11-18T00:35:37;24.05;;;17.13;;
70150;SDS011;57517;43.562;19.540;2022-11-18T00:38:02;28.80;;;18.90;;
70150;SDS011;57517;43.562;19.540;2022-11-18T00:40:28;25.30;;;17.85;;
70150;SDS011;57517;43.562;19.540;2022-11-18T00:42:54;20.45;;;15.60;;
70150;SDS011;57517;43.562;19.540;2022-11-18T00:45:20;24.73;;;17.23;;
70150;SDS011;57517;43.562;19.540;2022-11-18T00:47:47;25.67;;;16.95;;
70150;SDS011;57517;43.562;19.540;2022-11-18T00:50:13;26.25;;;15.75;;
70150;SDS011;57517;43.562;19.540;2022-11-18T00:52:39;23.98;;;14.50;;
70150;SDS011;57517;43.562;19.540;2022-11-18T00:55:05;19.23;;;13.50;;
70150;SDS011;57517;43.562;19.540;2022-11-18T00:57:31;17.75;;;13.60;;
70150;SDS011;57517;43.562;19.540;2022-11-18T00:59:57;22.85;;;14.95;;
70150;SDS011;57517;43.562;19.540;2022-11-18T01:02:23;19.25;;;14.15;;
70150;SDS011;57517;43.562;19.540;2022-11-18T01:04:48;24.00;;;15.85;;
70150;SDS011;57517;43.562;19.540;2022-11-18T01:07:14;19.25;;;13.95;;
70150;SDS011;57517;43.562;19.540;2022-11-18T01:09:40;23.15;;;15.27;;
70150;SDS011;57517;43.562;19.540;2022-11-18T01:12:06;23.10;;;15.70;;
70150;SDS011;57517;43.562;19.540;2022-11-18T01:14:52;24.05;;;14.98;;
70150;SDS011;57517;43.562;19.540;2022-11-18T01:17:18;17.88;;;13.32;;
70150;SDS011;57517;43.562;19.540;2022-11-18T01:19:43;20.20;;;13.40;;
70150;SDS011;57517;43.562;19.540;2022-11-18T01:22:09;28.02;;;14.40;;
70150;SDS011;57517;43.562;19.540;2022-11-18T01:24:35;25.70;;;13.50;;
70150;SDS011;57517;43.562;19.540;2022-11-18T01:27:01;44.30;;;16.55;;
70150;SDS011;57517;43.562;19.540;2022-11-18T01:29:27;26.75;;;14.48;;
70150;SDS011;57517;43.562;19.540;2022-11-18T01:31:52;22.63;;;13.40;;
70150;SDS011;57517;43.562;19.540;2022-11-18T01:34:18;22.05;;;12.85;;
70150;SDS011;57517;43.562;19.540;2022-11-18T01:36:44;21.83;;;15.27;;
70150;SDS011;57517;43.562;19.540;2022-11-18T01:39:10;22.60;;;16.33;;
70150;SDS011;57517;43.562;19.540;2022-11-18T01:41:36;24.40;;;16.75;;
70150;SDS011;57517;43.562;19.540;2022-11-18T01:44:03;37.72;;;15.20;;
70150;SDS011;57517;43.562;19.540;2022-11-18T01:46:49;18.63;;;12.25;;
70150;SDS011;57517;43.562;19.540;2022-11-18T01:49:15;17.60;;;11.20;;
70150;SDS011;57517;43.562;19.540;2022-11-18T01:51:45;15.88;;;10.73;;
70150;SDS011;57517;43.562;19.540;2022-11-18T01:54:25;23.42;;;11.13;;
70150;SDS011;57517;43.562;19.540;2022-11-18T01:57:00;14.02;;;10.32;;
70150;SDS011;57517;43.562;19.540;2022-11-18T01:59:30;18.17;;;11.50;;
70150;SDS011;57517;43.562;19.540;2022-11-18T02:02:00;51.35;;;16.52;;
70150;SDS011;57517;43.562;19.540;2022-11-18T02:04:30;46.75;;;17.75;;
70150;SDS011;57517;43.562;19.540;2022-11-18T02:06:56;31.35;;;15.85;;
70150;SDS011;57517;43.562;19.540;2022-11-18T02:09:22;29.27;;;16.60;;
70150;SDS011;57517;43.562;19.540;2022-11-18T02:11:48;74.82;;;21.30;;
70150;SDS011;57517;43.562;19.540;2022-11-18T02:14:15;50.10;;;17.35;;
70150;SDS011;57517;43.562;19.540;2022-11-18T02:24:41;13.80;;;9.60;;
70150;SDS011;57517;43.562;19.540;2022-11-18T02:27:33;17.58;;;10.57;;
70150;SDS011;57517;43.562;19.540;2022-11-18T02:30:29;17.45;;;9.73;;
70150;SDS011;57517;43.562;19.540;2022-11-18T02:33:09;15.15;;;9.60;;
70150;SDS011;57517;43.562;19.540;2022-11-18T02:35:44;19.77;;;10.77;;
70150;SDS011;57517;43.562;19.540;2022-11-18T02:38:18;20.10;;;11.00;;
70150;SDS011;57517;43.562;19.540;2022-11-18T02:41:00;28.25;;;12.68;;
70150;SDS011;57517;43.562;19.540;2022-11-18T02:43:34;20.33;;;12.45;;
70150;SDS011;57517;43.562;19.540;2022-11-18T02:46:09;19.02;;;12.48;;
70150;SDS011;57517;43.562;19.540;2022-11-18T02:48:40;42.22;;;14.63;;
70150;SDS011;57517;43.562;19.540;2022-11-18T02:51:10;18.40;;;12.70;;
70150;SDS011;57517;43.562;19.540;2022-11-18T02:53:39;24.38;;;12.90;;
70150;SDS011;57517;43.562;19.540;2022-11-18T02:56:06;19.17;;;11.40;;
70150;SDS011;57517;43.562;19.540;2022-11-18T02:58:33;15.85;;;11.65;;
70150;SDS011;57517;43.562;19.540;2022-11-18T03:00:59;18.60;;;12.23;;
70150;SDS011;57517;43.562;19.540;2022-11-18T03:03:30;18.48;;;12.27;;
70150;SDS011;57517;43.562;19.540;2022-11-18T03:08:45;18.27;;;12.50;;
70150;SDS011;57517;43.562;19.540;2022-11-18T03:11:15;18.80;;;13.32;;
70150;SDS011;57517;43.562;19.540;2022-11-18T03:16:35;21.20;;;11.75;;
70150;SDS011;57517;43.562;19.540;2022-11-18T03:21:51;24.52;;;10.25;;
70150;SDS011;57517;43.562;19.540;2022-11-18T03:24:28;48.28;;;12.70;;
70150;SDS011;57517;43.562;19.540;2022-11-18T03:27:04;20.27;;;11.13;;
70150;SDS011;57517;43.562;19.540;2022-11-18T03:29:43;26.08;;;12.57;;
70150;SDS011;57517;43.562;19.540;2022-11-18T03:32:17;60.33;;;14.68;;
70150;SDS011;57517;43.562;19.540;2022-11-18T03:34:48;58.20;;;15.55;;
70150;SDS011;57517;43.562;19.540;2022-11-18T03:37:17;37.22;;;14.55;;
70150;SDS011;57517;43.562;19.540;2022-11-18T03:39:48;16.98;;;11.30;;
70150;SDS011;57517;43.562;19.540;2022-11-18T03:42:18;14.73;;;10.82;;
70150;SDS011;57517;43.562;19.540;2022-11-18T03:44:53;16.13;;;9.80;;
70150;SDS011;57517;43.562;19.540;2022-11-18T03:47:31;18.88;;;10.65;;
70150;SDS011;57517;43.562;19.540;2022-11-18T03:50:03;15.13;;;10.18;;
70150;SDS011;57517;43.562;19.540;2022-11-18T03:52:37;18.65;;;11.10;;
70150;SDS011;57517;43.562;19.540;2022-11-18T03:55:07;17.85;;;11.73;;
70150;SDS011;57517;43.562;19.540;2022-11-18T03:58:23;25.52;;;12.95;;
70150;SDS011;57517;43.562;19.540;2022-11-18T04:01:03;33.88;;;13.02;;
70150;SDS011;57517;43.562;19.540;2022-11-18T04:03:36;19.58;;;11.60;;
70150;SDS011;57517;43.562;19.540;2022-11-18T04:06:03;54.13;;;15.75;;
70150;SDS011;57517;43.562;19.540;2022-11-18T04:08:39;38.70;;;12.70;;
70150;SDS011;57517;43.562;19.540;2022-11-18T04:11:08;16.77;;;10.65;;
70150;SDS011;57517;43.562;19.540;2022-11-18T04:13:59;18.08;;;10.25;;
70150;SDS011;57517;43.562;19.540;2022-11-18T04:16:26;15.57;;;10.25;;
70150;SDS011;57517;43.562;19.540;2022-11-18T04:18:51;15.77;;;10.25;;
70150;SDS011;57517;43.562;19.540;2022-11-18T04:21:17;17.55;;;10.40;;
70150;SDS011;57517;43.562;19.540;2022-11-18T04:23:43;18.65;;;12.55;;
70150;SDS011;57517;43.562;19.540;2022-11-18T04:26:09;18.45;;;11.68;;
70150;SDS011;57517;43.562;19.540;2022-11-18T04:28:35;17.83;;;12.73;;
70150;SDS011;57517;43.562;19.540;2022-11-18T04:31:01;18.98;;;10.63;;
70150;SDS011;57517;43.562;19.540;2022-11-18T04:33:27;15.45;;;11.15;;
70150;SDS011;57517;43.562;19.540;2022-11-18T04:35:53;21.55;;;11.50;;
70150;SDS011;57517;43.562;19.540;2022-11-18T04:38:18;34.58;;;14.43;;
70150;SDS011;57517;43.562;19.540;2022-11-18T04:40:45;22.45;;;11.57;;
70150;SDS011;57517;43.562;19.540;2022-11-18T04:43:11;19.27;;;10.98;;
70150;SDS011;57517;43.562;19.540;2022-11-18T04:45:36;18.02;;;10.90;;
70150;SDS011;57517;43.562;19.540;2022-11-18T04:48:02;15.75;;;10.48;;
70150;SDS011;57517;43.562;19.540;2022-11-18T04:50:28;18.77;;;11.52;;
70150;SDS011;57517;43.562;19.540;2022-11-18T04:52:54;29.02;;;11.52;;
70150;SDS011;57517;43.562;19.540;2022-11-18T04:55:19;18.52;;;10.63;;
70150;SDS011;57517;43.562;19.540;2022-11-18T04:57:45;23.23;;;11.80;;
70150;SDS011;57517;43.562;19.540;2022-11-18T05:00:11;26.27;;;12.15;;
70150;SDS011;57517;43.562;19.540;2022-11-18T05:02:37;24.23;;;13.05;;
70150;SDS011;57517;43.562;19.540;2022-11-18T05:05:03;17.08;;;11.20;;
70150;SDS011;57517;43.562;19.540;2022-11-18T05:07:29;19.02;;;12.15;;
70150;SDS011;57517;43.562;19.540;2022-11-18T05:09:55;18.02;;;11.05;;
70150;SDS011;57517;43.562;19.540;2022-11-18T05:12:21;25.73;;;11.35;;
70150;SDS011;57517;43.562;19.540;2022-11-18T05:15:05;22.25;;;11.68;;
70150;SDS011;57517;43.562;19.540;2022-11-18T05:17:33;19.25;;;10.88;;
70150;SDS011;57517;43.562;19.540;2022-11-18T05:19:59;33.13;;;13.25;;
70150;SDS011;57517;43.562;19.540;2022-11-18T05:22:25;30.00;;;12.75;;
70150;SDS011;57517;43.562;19.540;2022-11-18T05:24:50;18.35;;;10.63;;
70150;SDS011;57517;43.562;19.540;2022-11-18T05:27:16;22.13;;;12.15;;
70150;SDS011;57517;43.562;19.540;2022-11-18T05:29:42;23.13;;;12.70;;
70150;SDS011;57517;43.562;19.540;2022-11-18T05:32:08;19.38;;;13.20;;
70150;SDS011;57517;43.562;19.540;2022-11-18T05:34:34;19.33;;;12.77;;
70150;SDS011;57517;43.562;19.540;2022-11-18T05:36:59;15.63;;;11.95;;
70150;SDS011;57517;43.562;19.540;2022-11-18T05:39:25;17.83;;;11.88;;
70150;SDS011;57517;43.562;19.540;2022-11-18T05:41:51;21.80;;;14.93;;
70150;SDS011;57517;43.562;19.540;2022-11-18T05:44:35;23.63;;;15.18;;
70150;SDS011;57517;43.562;19.540;2022-11-18T05:47:02;21.83;;;15.10;;
70150;SDS011;57517;43.562;19.540;2022-11-18T05:49:28;20.00;;;14.85;;
70150;SDS011;57517;43.562;19.540;2022-11-18T05:51:54;20.00;;;14.77;;
70150;SDS011;57517;43.562;19.540;2022-11-18T05:54:19;22.33;;;16.45;;
70150;SDS011;57517;43.562;19.540;2022-11-18T05:56:46;21.30;;;16.13;;
70150;SDS011;57517;43.562;19.540;2022-11-18T05:59:12;22.83;;;15.27;;
70150;SDS011;57517;43.562;19.540;2022-11-18T06:04:44;23.92;;;19.10;;
70150;SDS011;57517;43.562;19.540;2022-11-18T06:07:16;23.95;;;19.33;;
70150;SDS011;57517;43.562;19.540;2022-11-18T06:09:46;17.55;;;15.10;;
70150;SDS011;57517;43.562;19.540;2022-11-18T06:12:16;16.40;;;12.98;;
70150;SDS011;57517;43.562;19.540;2022-11-18T06:14:45;21.00;;;15.45;;
70150;SDS011;57517;43.562;19.540;2022-11-18T06:17:18;17.83;;;14.10;;
70150;SDS011;57517;43.562;19.540;2022-11-18T06:19:48;22.05;;;17.17;;
70150;SDS011;57517;43.562;19.540;2022-11-18T06:22:14;28.50;;;19.55;;
70150;SDS011;57517;43.562;19.540;2022-11-18T06:24:40;28.40;;;18.75;;
70150;SDS011;57517;43.562;19.540;2022-11-18T06:27:07;24.88;;;17.55;;
70150;SDS011;57517;43.562;19.540;2022-11-18T06:29:33;23.10;;;17.45;;
70150;SDS011;57517;43.562;19.540;2022-11-18T06:31:59;20.65;;;16.83;;
70150;SDS011;57517;43.562;19.540;2022-11-18T06:34:25;23.42;;;15.48;;
70150;SDS011;57517;43.562;19.540;2022-11-18T06:36:50;22.30;;;16.58;;
70150;SDS011;57517;43.562;19.540;2022-11-18T06:39:16;23.25;;;16.38;;
70150;SDS011;57517;43.562;19.540;2022-11-18T06:41:42;24.52;;;17.20;;
70150;SDS011;57517;43.562;19.540;2022-11-18T06:44:10;27.75;;;19.48;;
70150;SDS011;57517;43.562;19.540;2022-11-18T06:46:36;29.52;;;20.48;;
70150;SDS011;57517;43.562;19.540;2022-11-18T06:49:21;28.15;;;21.17;;
70150;SDS011;57517;43.562;19.540;2022-11-18T06:51:48;26.17;;;19.10;;
70150;SDS011;57517;43.562;19.540;2022-11-18T06:54:14;24.08;;;18.92;;
70150;SDS011;57517;43.562;19.540;2022-11-18T06:56:39;27.55;;;22.02;;
70150;SDS011;57517;43.562;19.540;2022-11-18T06:59:05;45.95;;;30.95;;
70150;SDS011;57517;43.562;19.540;2022-11-18T07:01:33;49.80;;;31.55;;
70150;SDS011;57517;43.562;19.540;2022-11-18T07:04:02;35.72;;;26.15;;
70150;SDS011;57517;43.562;19.540;2022-11-18T07:06:29;29.00;;;19.00;;
70150;SDS011;57517;43.562;19.540;2022-11-18T07:08:56;26.38;;;18.40;;
70150;SDS011;57517;43.562;19.540;2022-11-18T07:11:24;62.03;;;44.83;;
70150;SDS011;57517;43.562;19.540;2022-11-18T07:13:50;39.60;;;28.70;;
70150;SDS011;57517;43.562;19.540;2022-11-18T07:16:20;90.13;;;67.85;;
70150;SDS011;57517;43.562;19.540;2022-11-18T07:18:48;44.67;;;34.40;;
70150;SDS011;57517;43.562;19.540;2022-11-18T07:21:16;42.13;;;31.30;;
70150;SDS011;57517;43.562;19.540;2022-11-18T07:23:47;35.30;;;25.33;;
70150;SDS011;57517;43.562;19.540;2022-11-18T07:26:13;69.90;;;55.78;;
70150;SDS011;57517;43.562;19.540;2022-11-18T07:28:39;43.25;;;31.23;;
70150;SDS011;57517;43.562;19.540;2022-11-18T07:33:33;39.55;;;26.48;;
70150;SDS011;57517;43.562;19.540;2022-11-18T07:36:03;30.52;;;22.98;;
70150;SDS011;57517;43.562;19.540;2022-11-18T07:38:31;37.38;;;24.92;;
70150;SDS011;57517;43.562;19.540;2022-11-18T07:41:06;34.20;;;23.85;;
70150;SDS011;57517;43.562;19.540;2022-11-18T07:43:35;31.30;;;22.15;;
70150;SDS011;57517;43.562;19.540;2022-11-18T07:48:43;59.70;;;41.97;;
70150;SDS011;57517;43.562;19.540;2022-11-18T07:51:10;38.85;;;27.17;;
70150;SDS011;57517;43.562;19.540;2022-11-18T07:53:37;60.40;;;39.92;;
70150;SDS011;57517;43.562;19.540;2022-11-18T07:56:03;37.67;;;28.90;;
70150;SDS011;57517;43.562;19.540;2022-11-18T07:58:30;73.55;;;59.35;;
70150;SDS011;57517;43.562;19.540;2022-11-18T08:00:56;44.35;;;36.40;;
70150;SDS011;57517;43.562;19.540;2022-11-18T08:03:27;42.88;;;33.05;;
70150;SDS011;57517;43.562;19.540;2022-11-18T08:06:00;34.90;;;26.20;;
70150;SDS011;57517;43.562;19.540;2022-11-18T08:08:26;80.78;;;60.97;;
70150;SDS011;57517;43.562;19.540;2022-11-18T08:10:56;40.20;;;28.80;;
70150;SDS011;57517;43.562;19.540;2022-11-18T08:13:23;36.15;;;28.33;;
70150;SDS011;57517;43.562;19.540;2022-11-18T08:15:49;45.75;;;34.78;;
70150;SDS011;57517;43.562;19.540;2022-11-18T08:18:15;43.47;;;34.28;;
70150;SDS011;57517;43.562;19.540;2022-11-18T08:20:41;41.42;;;33.42;;
70150;SDS011;57517;43.562;19.540;2022-11-18T08:23:09;86.97;;;59.63;;
70150;SDS011;57517;43.562;19.540;2022-11-18T08:25:35;52.50;;;38.78;;
70150;SDS011;57517;43.562;19.540;2022-11-18T08:28:01;47.53;;;34.72;;
70150;SDS011;57517;43.562;19.540;2022-11-18T08:30:26;50.47;;;38.38;;
70150;SDS011;57517;43.562;19.540;2022-11-18T08:32:52;59.70;;;44.83;;
70150;SDS011;57517;43.562;19.540;2022-11-18T08:35:19;112.60;;;79.28;;
70150;SDS011;57517;43.562;19.540;2022-11-18T08:37:44;83.30;;;60.45;;
70150;SDS011;57517;43.562;19.540;2022-11-18T08:40:10;70.97;;;51.85;;
70150;SDS011;57517;43.562;19.540;2022-11-18T08:42:36;53.20;;;40.75;;
70150;SDS011;57517;43.562;19.540;2022-11-18T08:45:05;69.70;;;53.63;;
70150;SDS011;57517;43.562;19.540;2022-11-18T08:47:34;55.08;;;42.70;;
70150;SDS011;57517;43.562;19.540;2022-11-18T08:50:03;55.60;;;38.65;;
70150;SDS011;57517;43.562;19.540;2022-11-18T08:52:31;43.88;;;32.88;;
70150;SDS011;57517;43.562;19.540;2022-11-18T08:54:56;47.05;;;34.03;;
70150;SDS011;57517;43.562;19.540;2022-11-18T08:57:22;47.35;;;35.50;;
70150;SDS011;57517;43.562;19.540;2022-11-18T08:59:48;47.47;;;35.70;;
70150;SDS011;57517;43.562;19.540;2022-11-18T09:02:14;45.03;;;34.95;;
70150;SDS011;57517;43.562;19.540;2022-11-18T09:04:42;47.20;;;34.20;;
70150;SDS011;57517;43.562;19.540;2022-11-18T09:07:07;46.42;;;36.75;;
70150;SDS011;57517;43.562;19.540;2022-11-18T09:09:33;44.83;;;33.72;;
70150;SDS011;57517;43.562;19.540;2022-11-18T09:12:00;45.33;;;35.05;;
70150;SDS011;57517;43.562;19.540;2022-11-18T09:14:26;47.60;;;36.30;;
70150;SDS011;57517;43.562;19.540;2022-11-18T09:16:52;38.95;;;29.58;;
70150;SDS011;57517;43.562;19.540;2022-11-18T09:19:18;36.97;;;28.08;;
70150;SDS011;57517;43.562;19.540;2022-11-18T09:21:43;41.63;;;32.50;;
70150;SDS011;57517;43.562;19.540;2022-11-18T09:24:09;54.58;;;38.65;;
70150;SDS011;57517;43.562;19.540;2022-11-18T09:26:36;49.55;;;35.97;;
70150;SDS011;57517;43.562;19.540;2022-11-18T09:29:02;50.13;;;39.70;;
70150;SDS011;57517;43.562;19.540;2022-11-18T09:31:28;55.15;;;39.40;;
70150;SDS011;57517;43.562;19.540;2022-11-18T09:33:54;46.42;;;36.90;;
70150;SDS011;57517;43.562;19.540;2022-11-18T09:36:23;51.55;;;39.92;;
70150;SDS011;57517;43.562;19.540;2022-11-18T09:38:50;44.08;;;34.53;;
70150;SDS011;57517;43.562;19.540;2022-11-18T09:49:53;43.72;;;30.63;;
70150;SDS011;57517;43.562;19.540;2022-11-18T09:52:27;40.17;;;29.42;;
70150;SDS011;57517;43.562;19.540;2022-11-18T09:54:57;44.78;;;32.83;;
70150;SDS011;57517;43.562;19.540;2022-11-18T10:00:17;67.55;;;50.45;;
70150;SDS011;57517;43.562;19.540;2022-11-18T10:03:01;57.28;;;43.53;;
70150;SDS011;57517;43.562;19.540;2022-11-18T10:05:49;56.28;;;39.15;;
70150;SDS011;57517;43.562;19.540;2022-11-18T10:08:24;39.38;;;30.85;;
70150;SDS011;57517;43.562;19.540;2022-11-18T10:13:31;59.83;;;45.42;;
70150;SDS011;57517;43.562;19.540;2022-11-18T10:18:53;49.78;;;41.00;;
70150;SDS011;57517;43.562;19.540;2022-11-18T10:24:42;44.38;;;35.15;;
70150;SDS011;57517;43.562;19.540;2022-11-18T10:27:13;42.00;;;33.90;;
70150;SDS011;57517;43.562;19.540;2022-11-18T10:29:40;49.20;;;36.60;;
70150;SDS011;57517;43.562;19.540;2022-11-18T10:32:11;48.92;;;40.55;;
70150;SDS011;57517;43.562;19.540;2022-11-18T10:34:52;47.38;;;41.50;;
70150;SDS011;57517;43.562;19.540;2022-11-18T10:39:56;39.70;;;31.25;;
70150;SDS011;57517;43.562;19.540;2022-11-18T10:44:49;37.58;;;28.48;;
70150;SDS011;57517;43.562;19.540;2022-11-18T10:47:28;37.30;;;28.20;;
70150;SDS011;57517;43.562;19.540;2022-11-18T10:49:56;36.58;;;28.83;;
70150;SDS011;57517;43.562;19.540;2022-11-18T10:52:24;44.17;;;34.85;;
70150;SDS011;57517;43.562;19.540;2022-11-18T10:55:36;43.83;;;33.90;;
70150;SDS011;57517;43.562;19.540;2022-11-18T10:57:47;36.53;;;30.50;;
70150;SDS011;57517;43.562;19.540;2022-11-18T11:00:31;36.13;;;30.77;;
70150;SDS011;57517;43.562;19.540;2022-11-18T11:05:46;56.20;;;43.30;;
70150;SDS011;57517;43.562;19.540;2022-11-18T11:08:19;49.58;;;38.97;;
70150;SDS011;57517;43.562;19.540;2022-11-18T11:10:54;51.10;;;41.67;;
70150;SDS011;57517;43.562;19.540;2022-11-18T11:13:22;59.58;;;49.30;;
70150;SDS011;57517;43.562;19.540;2022-11-18T11:15:52;64.57;;;51.03;;
70150;SDS011;57517;43.562;19.540;2022-11-18T11:18:23;43.45;;;37.70;;
70150;SDS011;57517;43.562;19.540;2022-11-18T11:21:15;51.50;;;43.17;;
70150;SDS011;57517;43.562;19.540;2022-11-18T11:23:46;47.88;;;37.88;;
70150;SDS011;57517;43.562;19.540;2022-11-18T11:26:33;50.95;;;39.92;;
70150;SDS011;57517;43.562;19.540;2022-11-18T11:29:11;46.33;;;37.78;;
70150;SDS011;57517;43.562;19.540;2022-11-18T11:34:56;38.95;;;33.17;;
70150;SDS011;57517;43.562;19.540;2022-11-18T11:38:13;43.88;;;36.88;;
70150;SDS011;57517;43.562;19.540;2022-11-18T11:50:16;40.20;;;32.78;;
70150;SDS011;57517;43.562;19.540;2022-11-18T11:53:07;35.33;;;27.77;;
70150;SDS011;57517;43.562;19.540;2022-11-18T11:58:22;58.25;;;47.05;;
70150;SDS011;57517;43.562;19.540;2022-11-18T12:01:04;52.88;;;40.42;;
70150;SDS011;57517;43.562;19.540;2022-11-18T12:06:48;48.08;;;38.50;;
70150;SDS011;57517;43.562;19.540;2022-11-18T12:09:20;54.08;;;41.97;;
70150;SDS011;57517;43.562;19.540;2022-11-18T12:12:11;51.60;;;41.97;;
70150;SDS011;57517;43.562;19.540;2022-11-18T12:15:14;67.03;;;50.55;;
70150;SDS011;57517;43.562;19.540;2022-11-18T12:18:11;71.50;;;54.70;;
70150;SDS011;57517;43.562;19.540;2022-11-18T12:20:51;80.15;;;66.45;;
70150;SDS011;57517;43.562;19.540;2022-11-18T12:25:51;60.05;;;47.72;;
70150;SDS011;57517;43.562;19.540;2022-11-18T12:33:48;54.42;;;46.30;;
70150;SDS011;57517;43.562;19.540;2022-11-18T12:36:31;58.90;;;44.97;;
70150;SDS011;57517;43.562;19.540;2022-11-18T12:45:36;50.53;;;39.60;;
70150;SDS011;57517;43.562;19.540;2022-11-18T12:53:49;48.28;;;37.92;;
70150;SDS011;57517;43.562;19.540;2022-11-18T12:58:58;60.80;;;43.17;;
70150;SDS011;57517;43.562;19.540;2022-11-18T13:01:26;51.00;;;40.35;;
70150;SDS011;57517;43.562;19.540;2022-11-18T13:04:06;42.75;;;33.15;;
70150;SDS011;57517;43.562;19.540;2022-11-18T13:09:02;39.88;;;30.63;;
70150;SDS011;57517;43.562;19.540;2022-11-18T13:11:30;42.40;;;31.38;;
70150;SDS011;57517;43.562;19.540;2022-11-18T13:14:13;48.08;;;34.78;;
70150;SDS011;57517;43.562;19.540;2022-11-18T13:17:29;49.83;;;40.25;;
70150;SDS011;57517;43.562;19.540;2022-11-18T13:22:53;64.63;;;51.00;;
70150;SDS011;57517;43.562;19.540;2022-11-18T13:25:39;69.35;;;52.38;;
70150;SDS011;57517;43.562;19.540;2022-11-18T13:33:32;76.90;;;58.67;;
70150;SDS011;57517;43.562;19.540;2022-11-18T13:36:00;80.10;;;59.88;;
70150;SDS011;57517;43.562;19.540;2022-11-18T13:38:26;72.10;;;56.70;;
70150;SDS011;57517;43.562;19.540;2022-11-18T13:40:52;68.75;;;50.38;;
70150;SDS011;57517;43.562;19.540;2022-11-18T13:43:35;71.50;;;50.38;;
70150;SDS011;57517;43.562;19.540;2022-11-18T13:46:05;62.78;;;48.83;;
70150;SDS011;57517;43.562;19.540;2022-11-18T13:48:37;64.75;;;50.33;;
70150;SDS011;57517;43.562;19.540;2022-11-18T13:51:06;61.75;;;49.00;;
70150;SDS011;57517;43.562;19.540;2022-11-18T13:53:33;63.33;;;48.25;;
70150;SDS011;57517;43.562;19.540;2022-11-18T14:01:02;57.22;;;42.65;;
70150;SDS011;57517;43.562;19.540;2022-11-18T14:03:45;58.60;;;44.40;;
70150;SDS011;57517;43.562;19.540;2022-11-18T14:09:02;48.97;;;38.10;;
70150;SDS011;57517;43.562;19.540;2022-11-18T14:14:31;51.63;;;42.20;;
70150;SDS011;57517;43.562;19.540;2022-11-18T14:17:02;46.35;;;37.75;;
70150;SDS011;57517;43.562;19.540;2022-11-18T14:19:49;30.73;;;26.10;;
70150;SDS011;57517;43.562;19.540;2022-11-18T14:22:18;45.97;;;35.92;;
70150;SDS011;57517;43.562;19.540;2022-11-18T14:24:56;51.55;;;41.15;;
70150;SDS011;57517;43.562;19.540;2022-11-18T14:27:35;39.78;;;29.75;;
70150;SDS011;57517;43.562;19.540;2022-11-18T14:35:47;28.67;;;21.70;;
70150;SDS011;57517;43.562;19.540;2022-11-18T14:38:18;38.55;;;29.98;;
70150;SDS011;57517;43.562;19.540;2022-11-18T14:40:53;37.08;;;29.25;;
70150;SDS011;57517;43.562;19.540;2022-11-18T14:43:20;40.55;;;31.65;;
70150;SDS011;57517;43.562;19.540;2022-11-18T14:45:47;38.72;;;29.73;;
70150;SDS011;57517;43.562;19.540;2022-11-18T14:48:13;32.65;;;27.13;;
70150;SDS011;57517;43.562;19.540;2022-11-18T14:50:41;35.33;;;29.30;;
70150;SDS011;57517;43.562;19.540;2022-11-18T14:53:08;41.75;;;32.80;;
70150;SDS011;57517;43.562;19.540;2022-11-18T14:55:36;39.33;;;29.27;;
70150;SDS011;57517;43.562;19.540;2022-11-18T14:58:02;37.40;;;28.77;;
70150;SDS011;57517;43.562;19.540;2022-11-18T15:00:28;40.78;;;31.50;;
70150;SDS011;57517;43.562;19.540;2022-11-18T15:02:53;39.15;;;29.58;;
70150;SDS011;57517;43.562;19.540;2022-11-18T15:05:19;55.75;;;42.95;;
70150;SDS011;57517;43.562;19.540;2022-11-18T15:07:45;133.77;;;104.47;;
70150;SDS011;57517;43.562;19.540;2022-11-18T15:10:14;70.95;;;53.05;;
70150;SDS011;57517;43.562;19.540;2022-11-18T15:12:40;52.13;;;42.75;;
70150;SDS011;57517;43.562;19.540;2022-11-18T15:15:07;52.55;;;44.20;;
70150;SDS011;57517;43.562;19.540;2022-11-18T15:17:33;57.15;;;45.38;;
70150;SDS011;57517;43.562;19.540;2022-11-18T15:19:58;54.97;;;45.55;;
70150;SDS011;57517;43.562;19.540;2022-11-18T15:22:24;65.78;;;53.58;;
70150;SDS011;57517;43.562;19.540;2022-11-18T15:24:50;50.65;;;40.22;;
70150;SDS011;57517;43.562;19.540;2022-11-18T15:27:16;51.42;;;39.25;;
70150;SDS011;57517;43.562;19.540;2022-11-18T15:29:41;89.90;;;71.10;;
70150;SDS011;57517;43.562;19.540;2022-11-18T15:32:07;73.75;;;59.28;;
70150;SDS011;57517;43.562;19.540;2022-11-18T15:34:33;80.13;;;61.13;;
70150;SDS011;57517;43.562;19.540;2022-11-18T15:36:59;71.25;;;56.65;;
70150;SDS011;57517;43.562;19.540;2022-11-18T15:39:25;66.10;;;53.63;;
70150;SDS011;57517;43.562;19.540;2022-11-18T15:41:51;59.65;;;45.75;;
70150;SDS011;57517;43.562;19.540;2022-11-18T15:44:16;82.60;;;70.60;;
70150;SDS011;57517;43.562;19.540;2022-11-18T15:46:42;82.78;;;66.75;;
70150;SDS011;57517;43.562;19.540;2022-11-18T15:49:12;85.05;;;69.60;;
70150;SDS011;57517;43.562;19.540;2022-11-18T15:51:39;92.75;;;73.47;;
70150;SDS011;57517;43.562;19.540;2022-11-18T15:54:05;90.32;;;70.30;;
70150;SDS011;57517;43.562;19.540;2022-11-18T15:56:31;66.38;;;54.85;;
70150;SDS011;57517;43.562;19.540;2022-11-18T16:01:24;98.35;;;79.32;;
70150;SDS011;57517;43.562;19.540;2022-11-18T16:03:51;82.38;;;64.57;;
70150;SDS011;57517;43.562;19.540;2022-11-18T16:06:17;115.43;;;92.35;;
70150;SDS011;57517;43.562;19.540;2022-11-18T16:08:43;135.50;;;112.20;;
70150;SDS011;57517;43.562;19.540;2022-11-18T16:11:12;118.00;;;96.20;;
70150;SDS011;57517;43.562;19.540;2022-11-18T16:14:02;104.78;;;86.85;;
70150;SDS011;57517;43.562;19.540;2022-11-18T16:16:29;126.10;;;105.57;;
70150;SDS011;57517;43.562;19.540;2022-11-18T16:18:59;101.28;;;84.13;;
70150;SDS011;57517;43.562;19.540;2022-11-18T16:21:27;108.10;;;84.78;;
70150;SDS011;57517;43.562;19.540;2022-11-18T16:23:57;106.10;;;90.88;;
70150;SDS011;57517;43.562;19.540;2022-11-18T16:26:24;158.82;;;127.22;;
70150;SDS011;57517;43.562;19.540;2022-11-18T16:28:50;148.50;;;123.28;;